YPPH/PER METAR and TAF weather

Enter ICAO airport designator
Station Type Date Time Source
YPPH METAR 2020/07/05 03:30 UTC NOAA

YPPH 050330Z 02008KT CAVOK 20/05 Q1017 NOSIG


Station Type Date Time Source
YPPH Decoded METAR 2020/07/05 03:30 UTC NOAA

Belmont Perth Airport , Australia (YPPH) 31-56S 115-57E 29M
Jul 04, 2020 - 11:30 PM EDT / 2020.07.05 0330 UTC
Wind: from the NNE (020 degrees) at 9 MPH (8 KT):0
Visibility: greater than 7 mile(s):0
Temperature: 68 F (20 C)
Dew Point: 41 F (5 C)
Relative Humidity: 37%
Pressure (altimeter): 30.03 in. Hg (1017 hPa)
ob: YPPH 050330Z 02008KT CAVOK 20/05 Q1017 NOSIG
cycle: 3

Station Type Date Time Source
YPPH TAF 2020/07/04 18:26 UTC NOAA

TAF
AMD YPPH 041723Z 0418/0600 06008KT CAVOK
FM050200 02010KT CAVOK
FM050900 02008KT 9999 -SHRA NSC
FM051200 31012KT 9999 -SHRA SCT015 BKN025 INTER 0514/0518 4000 SHRA BKN012
TEMPO 0518/0522 2000 SHRA BKN010 INTER 0522/0600 4000 SHRA SCT012 PROB30 INTER 0514/0522 1000 TSRA BKN008

Example: see airport list